createdAt,value
2023-01-17T00:07:42.709Z,3.13
2023-01-17T00:12:47.752Z,1.42
2023-01-17T00:17:50.658Z,1.27
2023-01-17T00:23:12.229Z,0.70
2023-01-17T00:28:13.595Z,0.70
2023-01-17T00:33:14.959Z,0.80
2023-01-17T00:38:18.368Z,0.60
2023-01-17T00:43:39.287Z,0.47
2023-01-17T00:48:59.873Z,0.40
2023-01-17T00:54:21.514Z,0.50
2023-01-17T00:59:41.531Z,0.80
2023-01-17T01:05:01.385Z,1.02
2023-01-17T01:10:23.244Z,0.57
2023-01-17T01:15:43.116Z,0.82
2023-01-17T01:21:03.015Z,0.85
2023-01-17T01:26:24.432Z,0.70
2023-01-17T01:31:44.296Z,0.60
2023-01-17T01:36:48.811Z,0.50
2023-01-17T01:41:52.600Z,1.23
2023-01-17T01:46:55.300Z,0.90
2023-01-17T01:51:59.613Z,0.67
2023-01-17T01:57:04.809Z,0.60
2023-01-17T02:02:08.009Z,0.50
2023-01-17T02:07:13.310Z,0.60
2023-01-17T02:12:18.338Z,0.52
2023-01-17T02:17:25.336Z,0.40
2023-01-17T02:22:41.227Z,0.77
2023-01-17T02:27:53.862Z,0.60
2023-01-17T02:33:06.903Z,0.60
2023-01-17T02:38:14.194Z,0.60
2023-01-17T02:43:17.431Z,0.50
2023-01-17T02:48:23.822Z,0.57
2023-01-17T02:53:31.977Z,0.40
2023-01-17T02:58:42.005Z,0.40
2023-01-17T03:03:48.795Z,0.32
2023-01-17T03:08:52.167Z,0.55
2023-01-17T03:13:55.858Z,0.38
2023-01-17T03:18:59.717Z,0.30
2023-01-17T03:24:03.022Z,0.55
2023-01-17T03:29:05.512Z,0.95
2023-01-17T03:34:09.374Z,1.00
2023-01-17T03:39:11.929Z,1.23
2023-01-17T03:44:14.474Z,0.93
2023-01-17T03:49:18.374Z,1.00
2023-01-17T03:54:20.844Z,1.20
2023-01-17T03:59:23.368Z,1.70
2023-01-17T04:04:27.220Z,1.52
2023-01-17T04:09:33.951Z,1.88
2023-01-17T04:14:36.485Z,1.77
2023-01-17T04:19:41.055Z,2.25
2023-01-17T04:24:43.490Z,1.80
2023-01-17T04:29:46.838Z,3.15
2023-01-17T04:34:50.666Z,2.65
2023-01-17T04:39:53.152Z,2.75
2023-01-17T04:44:55.800Z,2.95
2023-01-17T04:49:59.619Z,2.63
2023-01-17T04:55:02.029Z,3.35
2023-01-17T05:00:04.770Z,3.25
2023-01-17T05:05:13.272Z,3.70
2023-01-17T05:10:15.745Z,2.35
2023-01-17T05:15:18.266Z,2.33
2023-01-17T05:20:22.458Z,2.28
2023-01-17T05:25:25.385Z,2.72
2023-01-17T05:30:28.141Z,2.00
2023-01-17T05:35:33.588Z,1.20
2023-01-17T05:40:37.046Z,1.02
2023-01-17T05:45:40.674Z,1.20
2023-01-17T05:55:47.777Z,1.67
2023-01-17T06:00:50.950Z,3.55
2023-01-17T06:05:53.465Z,4.05
2023-01-17T06:11:01.474Z,4.07
2023-01-17T06:16:04.337Z,4.50
2023-01-17T06:21:07.095Z,3.77
2023-01-17T06:26:11.533Z,3.53
2023-01-17T06:31:14.094Z,3.95
2023-01-17T06:36:16.638Z,5.55
2023-01-17T06:41:20.748Z,6.07
2023-01-17T06:46:23.693Z,6.93
2023-01-17T06:51:26.344Z,9.43
2023-01-17T06:56:32.878Z,9.37
2023-01-17T07:01:35.741Z,11.25
2023-01-17T07:06:38.344Z,12.50
2023-01-17T07:11:42.176Z,14.07
2023-01-17T07:16:46.071Z,13.25
2023-01-17T07:21:51.486Z,13.63
2023-01-17T07:26:55.298Z,14.20
2023-01-17T07:31:57.837Z,15.38
2023-01-17T07:37:00.372Z,15.63
2023-01-17T07:42:04.177Z,13.75
2023-01-17T07:47:06.733Z,15.48
2023-01-17T07:52:09.535Z,14.27
2023-01-17T07:57:13.610Z,14.20
2023-01-17T08:02:17.989Z,14.07
2023-01-17T08:07:20.418Z,13.45
2023-01-17T08:12:25.973Z,13.25
2023-01-17T08:17:28.454Z,12.10
2023-01-17T08:22:31.068Z,13.73
2023-01-17T08:27:36.334Z,12.98
2023-01-17T08:32:40.674Z,11.68
2023-01-17T08:37:43.340Z,11.82
2023-01-17T08:42:54.189Z,9.10
2023-01-17T08:47:58.420Z,8.35
2023-01-17T08:53:01.328Z,6.47
2023-01-17T08:58:05.259Z,7.32
2023-01-17T09:03:10.421Z,6.93
2023-01-17T09:08:12.961Z,5.47
2023-01-17T09:13:16.778Z,4.38
2023-01-17T09:18:19.179Z,5.18
2023-01-17T09:23:21.735Z,5.22
2023-01-17T09:28:25.943Z,5.32
2023-01-17T09:33:28.411Z,5.10
2023-01-17T09:38:31.110Z,6.30
2023-01-17T09:43:40.844Z,5.50
2023-01-17T09:48:44.012Z,5.00
2023-01-17T09:53:46.596Z,5.97
2023-01-17T09:58:53.755Z,6.35
2023-01-17T10:04:05.983Z,5.57
2023-01-17T10:09:22.570Z,5.57
2023-01-17T10:14:33.562Z,6.93
2023-01-17T10:19:46.157Z,6.65
2023-01-17T10:24:59.913Z,7.57
2023-01-17T10:30:05.013Z,8.80
2023-01-17T10:35:14.946Z,8.43
2023-01-17T10:40:21.592Z,10.15
2023-01-17T10:45:28.901Z,9.38
2023-01-17T10:50:34.581Z,10.35
2023-01-17T10:55:40.129Z,9.50
2023-01-17T11:00:47.077Z,9.27
2023-01-17T11:06:04.473Z,9.73
2023-01-17T11:11:06.983Z,10.07
2023-01-17T11:16:11.613Z,10.70
2023-01-17T11:21:16.046Z,9.38
2023-01-17T11:26:27.347Z,9.88
2023-01-17T11:31:32.137Z,9.75
2023-01-17T11:36:34.658Z,8.95
2023-01-17T11:41:38.254Z,8.55
2023-01-17T11:51:44.670Z,8.05
2023-01-17T11:56:47.168Z,7.82
2023-01-17T12:01:55.924Z,8.65
2023-01-17T12:07:07.031Z,6.80
2023-01-17T12:12:30.570Z,6.47
2023-01-17T12:17:39.002Z,5.38
2023-01-17T12:22:46.934Z,4.25
2023-01-17T12:27:53.445Z,4.95
2023-01-17T12:33:02.879Z,4.47
2023-01-17T12:38:08.490Z,4.30
2023-01-17T12:43:15.417Z,4.47
2023-01-17T12:48:18.646Z,3.92
2023-01-17T12:53:27.241Z,2.95
2023-01-17T12:58:35.071Z,3.50
2023-01-17T13:03:43.473Z,3.30
2023-01-17T13:08:49.708Z,2.70
2023-01-17T13:13:53.412Z,2.28
2023-01-17T13:18:56.590Z,3.17
2023-01-17T13:24:10.028Z,2.50
2023-01-17T13:29:17.669Z,1.90
2023-01-17T13:34:34.009Z,2.10
2023-01-17T13:39:46.895Z,1.80
2023-01-17T13:44:49.630Z,1.73
2023-01-17T13:49:56.583Z,2.10
2023-01-17T13:55:01.815Z,2.90
2023-01-17T14:00:40.070Z,1.70
2023-01-17T14:05:49.339Z,2.72
2023-01-17T14:10:53.844Z,2.92
2023-01-17T14:15:56.266Z,1.67
2023-01-17T14:21:11.171Z,3.03
2023-01-17T14:26:19.548Z,1.60
2023-01-17T14:31:22.959Z,1.77
2023-01-17T14:41:30.413Z,1.45
2023-01-17T14:46:33.327Z,1.50
2023-01-17T14:51:39.351Z,1.40
2023-01-17T14:56:43.193Z,1.73
2023-01-17T15:02:06.010Z,2.00
2023-01-17T15:07:14.519Z,1.90
2023-01-17T15:12:19.489Z,1.70
2023-01-17T15:17:24.482Z,3.20
2023-01-17T15:22:30.054Z,2.58
2023-01-17T15:27:34.165Z,5.10
2023-01-17T15:32:37.919Z,5.47
2023-01-17T15:37:41.900Z,19.98
2023-01-17T15:42:47.761Z,4.68
2023-01-17T15:47:50.516Z,5.28
2023-01-17T15:52:54.337Z,16.80
2023-01-17T15:57:58.251Z,4.97
2023-01-17T16:03:01.096Z,3.95
2023-01-17T16:08:23.459Z,4.17
2023-01-17T16:13:27.374Z,2.55
2023-01-17T16:18:29.901Z,2.30
2023-01-17T16:23:32.414Z,2.53
2023-01-17T16:28:36.373Z,3.67
2023-01-17T16:33:39.270Z,3.72
2023-01-17T16:38:42.186Z,3.47
2023-01-17T16:43:46.038Z,4.03
2023-01-17T16:48:48.670Z,6.07
2023-01-17T16:53:52.211Z,25.67
2023-01-17T17:03:58.541Z,15.18
2023-01-17T17:09:01.065Z,7.82
2023-01-17T17:14:03.982Z,5.95
2023-01-17T17:19:07.924Z,6.28
2023-01-17T17:24:12.754Z,7.22
2023-01-17T17:29:16.220Z,4.32
2023-01-17T17:34:20.067Z,7.97
2023-01-17T17:39:22.533Z,10.48
2023-01-17T17:44:27.330Z,16.70
2023-01-17T17:49:31.158Z,17.08
2023-01-17T17:54:33.932Z,10.70
2023-01-17T17:59:36.393Z,10.97
2023-01-17T18:04:40.226Z,9.65
2023-01-17T18:09:42.943Z,10.93
2023-01-17T18:14:45.384Z,9.83
2023-01-17T18:19:49.275Z,8.20
2023-01-17T18:24:52.722Z,10.25
2023-01-17T18:29:55.185Z,28.70
2023-01-17T18:35:03.188Z,24.25
2023-01-17T18:40:07.047Z,10.80
2023-01-17T18:45:11.785Z,9.32
2023-01-17T18:50:17.936Z,8.98
2023-01-17T18:55:41.299Z,10.23
2023-01-17T19:00:43.822Z,11.88
2023-01-17T19:05:48.287Z,12.50
2023-01-17T19:10:50.777Z,9.88
2023-01-17T19:15:53.558Z,8.88
2023-01-17T19:20:57.704Z,8.60
2023-01-17T19:26:00.174Z,8.65
2023-01-17T19:31:03.398Z,9.52
2023-01-17T19:36:08.990Z,11.75
2023-01-17T19:41:14.828Z,10.05
2023-01-17T19:46:19.588Z,12.05
2023-01-17T19:51:23.805Z,11.30
2023-01-17T19:56:27.306Z,10.13
2023-01-17T20:06:35.171Z,9.18
2023-01-17T20:11:37.883Z,11.63
2023-01-17T20:16:40.338Z,7.50
2023-01-17T20:21:44.225Z,8.15
2023-01-17T20:26:46.667Z,7.18
2023-01-17T20:31:52.409Z,7.65
2023-01-17T20:36:57.976Z,7.47
2023-01-17T20:42:00.539Z,9.40
2023-01-17T20:47:02.939Z,7.17
2023-01-17T20:52:16.996Z,6.63
2023-01-17T21:02:21.876Z,9.82
2023-01-17T21:07:25.826Z,8.97
2023-01-17T21:12:28.597Z,9.70
2023-01-17T21:17:31.116Z,11.17
2023-01-17T21:22:34.932Z,11.17
2023-01-17T21:27:37.619Z,8.50
2023-01-17T21:32:44.676Z,7.07
2023-01-17T21:38:07.899Z,7.25
2023-01-17T21:43:12.097Z,8.68
2023-01-17T21:48:14.705Z,9.20
2023-01-17T21:53:17.362Z,10.53
2023-01-17T21:58:38.524Z,9.43
2023-01-17T22:03:41.243Z,9.27
2023-01-17T22:08:44.095Z,10.30
2023-01-17T22:13:48.224Z,11.48
2023-01-17T22:18:51.124Z,11.55
2023-01-17T22:23:54.395Z,33.65
2023-01-17T22:29:00.618Z,17.13
2023-01-17T22:34:07.003Z,11.82
2023-01-17T22:39:10.491Z,9.20
2023-01-17T22:44:14.309Z,8.90
2023-01-17T22:49:16.934Z,8.27
2023-01-17T22:54:20.291Z,9.40
2023-01-17T22:59:24.180Z,8.82
2023-01-17T23:04:28.225Z,9.38
2023-01-17T23:09:30.806Z,10.18
2023-01-17T23:14:50.050Z,10.07
2023-01-17T23:19:54.619Z,11.43
2023-01-17T23:24:57.955Z,10.93
2023-01-17T23:30:01.885Z,9.65
2023-01-17T23:35:04.441Z,11.05
2023-01-17T23:40:07.519Z,12.07
2023-01-17T23:45:11.739Z,11.43
2023-01-17T23:50:14.328Z,11.18
2023-01-17T23:55:17.336Z,10.40
